createdAt,value
2022-08-21T00:00:21.952Z,21.85
2022-08-21T00:03:10.332Z,21.81
2022-08-21T00:05:51.017Z,21.78
2022-08-21T00:08:22.142Z,21.75
2022-08-21T00:10:53.864Z,21.74
2022-08-21T00:13:26.230Z,21.75
2022-08-21T00:15:55.809Z,21.75
2022-08-21T00:18:26.500Z,21.77
2022-08-21T00:21:01.126Z,21.77
2022-08-21T00:23:30.435Z,21.76
2022-08-21T00:26:03.308Z,21.76
2022-08-21T00:28:35.821Z,21.75
2022-08-21T00:31:05.130Z,21.75
2022-08-21T00:33:34.961Z,21.75
2022-08-21T00:36:05.788Z,21.75
2022-08-21T00:38:35.380Z,21.75
2022-08-21T00:41:27.587Z,21.74
2022-08-21T00:43:58.726Z,21.73
2022-08-21T00:46:28.667Z,21.74
2022-08-21T00:48:59.065Z,21.74
2022-08-21T00:51:47.365Z,21.73
2022-08-21T00:54:20.215Z,21.70
2022-08-21T00:56:57.111Z,21.69
2022-08-21T00:59:36.479Z,21.68
2022-08-21T01:02:08.599Z,21.69
2022-08-21T01:04:38.071Z,21.69
2022-08-21T01:07:07.498Z,21.67
2022-08-21T01:09:38.647Z,21.65
2022-08-21T01:12:11.600Z,21.63
2022-08-21T01:14:43.961Z,21.61
2022-08-21T01:17:17.009Z,21.60
2022-08-21T01:19:46.193Z,21.61
2022-08-21T01:22:15.396Z,21.61
2022-08-21T01:24:44.722Z,21.61
2022-08-21T01:27:13.958Z,21.61
2022-08-21T01:30:02.669Z,21.61
2022-08-21T01:32:35.834Z,21.60
2022-08-21T01:35:08.685Z,21.57
2022-08-21T01:37:38.149Z,21.57
2022-08-21T01:40:10.426Z,21.56
2022-08-21T01:42:41.003Z,21.56
2022-08-21T01:45:11.907Z,21.56
2022-08-21T01:47:48.337Z,21.57
2022-08-21T01:50:21.787Z,21.57
2022-08-21T01:52:53.291Z,21.56
2022-08-21T01:55:22.732Z,21.55
2022-08-21T01:57:52.167Z,21.49
2022-08-21T02:00:26.296Z,21.48
2022-08-21T02:02:55.402Z,21.49
2022-08-21T02:05:27.430Z,21.51
2022-08-21T02:07:56.714Z,21.50
2022-08-21T02:10:30.854Z,21.50
2022-08-21T02:13:01.680Z,21.50
2022-08-21T02:15:32.518Z,21.51
2022-08-21T02:18:03.288Z,21.51
2022-08-21T02:20:43.984Z,21.52
2022-08-21T02:23:14.733Z,21.53
2022-08-21T02:25:44.186Z,21.54
2022-08-21T02:28:16.399Z,21.55
2022-08-21T02:30:55.234Z,21.55
2022-08-21T02:37:15.919Z,21.47
2022-08-21T02:39:45.271Z,21.47
2022-08-21T02:42:14.327Z,21.46
2022-08-21T02:44:43.462Z,21.42
2022-08-21T02:47:12.717Z,21.34
2022-08-21T02:49:45.723Z,21.27
2022-08-21T02:52:15.566Z,21.19
2022-08-21T02:54:44.714Z,21.09
2022-08-21T02:57:13.748Z,21.04
2022-08-21T02:59:42.922Z,20.99
2022-08-21T03:02:15.535Z,20.94
2022-08-21T03:04:46.685Z,20.86
2022-08-21T03:07:16.489Z,20.81
2022-08-21T03:09:55.815Z,20.78
2022-08-21T03:12:27.876Z,20.74
2022-08-21T03:14:59.420Z,20.72
2022-08-21T03:17:30.072Z,20.69
2022-08-21T03:20:02.865Z,20.67
2022-08-21T03:22:33.364Z,20.65
2022-08-21T03:25:06.251Z,20.64
2022-08-21T03:27:36.489Z,20.64
2022-08-21T03:30:12.842Z,20.66
2022-08-21T03:32:44.817Z,20.69
2022-08-21T03:35:15.910Z,20.70
2022-08-21T03:37:46.346Z,20.71
2022-08-21T03:40:20.029Z,20.74
2022-08-21T03:42:49.883Z,20.77
2022-08-21T03:45:20.541Z,20.80
2022-08-21T03:48:04.262Z,20.80
2022-08-21T03:50:42.237Z,20.79
2022-08-21T03:53:16.937Z,20.80
2022-08-21T03:55:52.122Z,20.81
2022-08-21T03:58:30.457Z,20.82
2022-08-21T04:01:01.885Z,20.82
2022-08-21T04:03:31.837Z,20.82
2022-08-21T04:06:01.112Z,20.83
2022-08-21T04:08:31.406Z,20.83
2022-08-21T04:11:00.734Z,20.84
2022-08-21T04:13:30.084Z,20.85
2022-08-21T04:15:59.712Z,20.85
2022-08-21T04:18:31.662Z,20.85
2022-08-21T04:21:04.520Z,20.84
2022-08-21T04:23:34.495Z,20.83
2022-08-21T04:26:04.312Z,20.80
2022-08-21T04:28:33.589Z,20.77
2022-08-21T04:31:03.306Z,20.74
2022-08-21T04:33:32.635Z,20.74
2022-08-21T04:36:03.925Z,20.73
2022-08-21T04:38:37.600Z,20.74
2022-08-21T04:41:10.699Z,20.76
2022-08-21T04:43:41.083Z,20.79
2022-08-21T04:46:13.621Z,20.80
2022-08-21T04:48:43.498Z,20.82
2022-08-21T04:51:24.884Z,20.85
2022-08-21T04:54:16.868Z,20.87
2022-08-21T04:56:55.925Z,20.84
2022-08-21T04:59:32.758Z,20.80
2022-08-21T05:02:03.754Z,20.78
2022-08-21T05:04:38.062Z,20.76
2022-08-21T05:07:14.245Z,20.74
2022-08-21T05:09:43.894Z,20.72
2022-08-21T05:12:17.821Z,20.71
2022-08-21T05:14:48.487Z,20.71
2022-08-21T05:17:25.232Z,20.70
2022-08-21T05:20:06.875Z,20.71
2022-08-21T05:22:41.135Z,20.72
2022-08-21T05:25:14.715Z,20.72
2022-08-21T05:27:52.154Z,20.72
2022-08-21T05:30:22.275Z,20.71
2022-08-21T05:33:16.393Z,20.71
2022-08-21T05:36:11.757Z,20.72
2022-08-21T05:38:49.756Z,20.74
2022-08-21T05:41:24.338Z,20.76
2022-08-21T05:44:00.897Z,20.79
2022-08-21T05:46:38.608Z,20.83
2022-08-21T05:49:14.086Z,20.86
2022-08-21T05:51:43.780Z,20.87
2022-08-21T05:54:15.975Z,20.84
2022-08-21T05:56:50.490Z,20.80
2022-08-21T05:59:29.010Z,20.78
2022-08-21T06:02:09.493Z,20.73
2022-08-21T06:04:41.420Z,20.69
2022-08-21T06:07:10.775Z,20.62
2022-08-21T06:09:40.188Z,20.53
2022-08-21T06:12:15.771Z,20.48
2022-08-21T06:14:47.382Z,20.47
2022-08-21T06:17:17.042Z,20.44
2022-08-21T06:19:46.259Z,20.39
2022-08-21T06:22:15.550Z,20.33
2022-08-21T06:24:44.940Z,20.27
2022-08-21T06:27:29.312Z,20.20
2022-08-21T06:30:08.583Z,20.17
2022-08-21T06:32:40.476Z,20.13
2022-08-21T06:35:26.982Z,20.11
2022-08-21T06:38:12.309Z,20.08
2022-08-21T06:41:17.685Z,20.05
2022-08-21T06:43:53.829Z,20.05
2022-08-21T06:46:32.260Z,20.07
2022-08-21T06:49:06.184Z,20.11
2022-08-21T06:51:37.264Z,20.11
2022-08-21T06:54:06.724Z,20.05
2022-08-21T06:56:41.816Z,19.99
2022-08-21T06:59:13.682Z,19.96
2022-08-21T07:01:45.984Z,19.96
2022-08-21T07:04:15.442Z,19.93
2022-08-21T07:06:47.768Z,19.90
2022-08-21T07:09:24.384Z,19.88
2022-08-21T07:11:58.917Z,19.84
2022-08-21T07:14:28.529Z,19.80
2022-08-21T07:17:04.067Z,19.80
2022-08-21T07:19:47.870Z,19.84
2022-08-21T07:22:25.973Z,19.88
2022-08-21T07:25:02.852Z,19.89
2022-08-21T07:27:38.796Z,19.87
2022-08-21T07:30:20.993Z,19.87
2022-08-21T07:33:17.321Z,19.90
2022-08-21T07:36:12.713Z,19.93
2022-08-21T07:38:59.469Z,19.95
2022-08-21T07:41:34.561Z,19.97
2022-08-21T07:44:12.645Z,19.99
2022-08-21T07:46:56.965Z,20.00
2022-08-21T07:49:39.813Z,19.99
2022-08-21T07:52:23.481Z,19.95
2022-08-21T07:55:31.392Z,19.97
2022-08-21T07:58:06.836Z,19.99
2022-08-21T08:00:36.790Z,20.03
2022-08-21T08:03:10.509Z,20.05
2022-08-21T08:05:47.495Z,20.06
2022-08-21T08:08:19.879Z,20.07
2022-08-21T08:10:50.715Z,20.07
2022-08-21T08:13:20.381Z,20.07
2022-08-21T08:15:50.646Z,20.07
2022-08-21T08:18:22.253Z,20.08
2022-08-21T08:20:53.200Z,20.08
2022-08-21T08:23:29.678Z,20.08
2022-08-21T08:26:08.125Z,20.08
2022-08-21T08:28:39.766Z,20.09
2022-08-21T08:31:15.168Z,20.09
2022-08-21T08:33:45.238Z,20.12
2022-08-21T08:36:19.763Z,20.13
2022-08-21T08:38:51.209Z,20.17
2022-08-21T08:41:33.190Z,20.19
2022-08-21T08:44:13.697Z,20.18
2022-08-21T08:46:53.853Z,20.13
2022-08-21T08:49:56.118Z,20.07
2022-08-21T08:52:37.741Z,20.02
2022-08-21T08:55:28.099Z,19.97
2022-08-21T08:57:58.700Z,19.92
2022-08-21T09:00:32.294Z,19.87
2022-08-21T09:03:04.957Z,19.80
2022-08-21T09:05:50.639Z,19.79
2022-08-21T09:08:50.426Z,19.78
2022-08-21T09:11:52.021Z,19.74
2022-08-21T09:15:03.442Z,19.70
2022-08-21T09:18:24.276Z,19.69
2022-08-21T09:21:53.962Z,19.73
2022-08-21T09:24:54.936Z,19.73
2022-08-21T09:27:46.988Z,19.70
2022-08-21T09:30:36.394Z,19.66
2022-08-21T09:33:08.675Z,19.64
2022-08-21T09:35:55.679Z,19.68
2022-08-21T09:38:39.780Z,19.71
2022-08-21T09:41:11.750Z,19.74
2022-08-21T09:43:44.790Z,19.77
2022-08-21T09:46:34.520Z,19.79
2022-08-21T09:49:06.931Z,19.83
2022-08-21T09:51:56.363Z,19.88
2022-08-21T09:54:38.328Z,19.92
2022-08-21T09:57:32.116Z,19.92
2022-08-21T10:00:26.352Z,19.94
2022-08-21T10:03:08.324Z,19.93
2022-08-21T10:05:42.743Z,19.92
2022-08-21T10:08:22.012Z,19.95
2022-08-21T10:10:59.398Z,19.94
2022-08-21T10:14:06.761Z,19.94
2022-08-21T10:17:09.042Z,19.96
2022-08-21T10:20:10.833Z,20.00
2022-08-21T10:23:32.019Z,20.08
2022-08-21T10:26:40.285Z,20.12
2022-08-21T10:29:31.658Z,20.17
2022-08-21T10:45:16.520Z,20.48
2022-08-21T10:47:58.037Z,20.47
2022-08-21T10:50:49.777Z,20.45
2022-08-21T10:54:01.088Z,20.42
2022-08-21T10:56:34.787Z,20.37
2022-08-21T10:59:46.974Z,20.38
2022-08-21T11:03:11.327Z,20.40
2022-08-21T11:06:28.669Z,20.40
2022-08-21T11:09:20.873Z,20.41
2022-08-21T11:12:29.542Z,20.40
2022-08-21T11:16:00.895Z,20.43
2022-08-21T11:18:52.765Z,20.44
2022-08-21T11:21:41.702Z,20.46
2022-08-21T11:24:40.749Z,20.47
2022-08-21T11:27:30.141Z,20.51
2022-08-21T11:30:24.246Z,20.53
2022-08-21T11:33:25.252Z,20.52
2022-08-21T11:36:07.996Z,20.53
2022-08-21T11:38:57.841Z,20.56
2022-08-21T11:41:47.669Z,20.59
2022-08-21T11:45:21.388Z,20.60
2022-08-21T11:49:09.584Z,20.64
2022-08-21T11:52:44.895Z,20.67
2022-08-21T11:56:13.897Z,20.69
2022-08-21T11:59:10.645Z,20.70
2022-08-21T12:01:53.866Z,20.72
2022-08-21T12:04:44.063Z,20.73
2022-08-21T12:07:41.339Z,20.75
2022-08-21T12:10:44.379Z,20.78
2022-08-21T12:13:40.331Z,20.79
2022-08-21T12:16:50.921Z,20.73
2022-08-21T12:19:43.043Z,20.68
2022-08-21T12:22:57.325Z,20.69
2022-08-21T12:25:47.855Z,20.70
2022-08-21T12:28:47.464Z,20.70
2022-08-21T12:31:31.867Z,20.67
2022-08-21T12:34:06.978Z,20.62
2022-08-21T12:37:00.462Z,20.61
2022-08-21T12:39:39.886Z,20.57
2022-08-21T12:42:26.057Z,20.54
2022-08-21T12:45:13.941Z,20.52
2022-08-21T12:48:03.569Z,20.50
2022-08-21T12:50:51.603Z,20.48
2022-08-21T12:53:34.851Z,20.47
2022-08-21T12:56:14.904Z,20.48
2022-08-21T12:58:55.115Z,20.48
2022-08-21T13:01:57.468Z,20.47
2022-08-21T13:04:44.473Z,20.43
2022-08-21T13:07:39.709Z,20.46
2022-08-21T13:10:32.857Z,20.51
2022-08-21T13:13:25.518Z,20.52
2022-08-21T13:16:07.268Z,20.51
2022-08-21T13:18:55.459Z,20.51
2022-08-21T13:21:35.958Z,20.53
2022-08-21T13:24:41.731Z,20.54
2022-08-21T13:33:07.684Z,20.51
2022-08-21T13:36:23.905Z,20.54
2022-08-21T13:43:33.041Z,20.63
2022-08-21T13:46:19.420Z,20.69
2022-08-21T13:49:14.948Z,20.72
2022-08-21T13:52:11.352Z,20.74
2022-08-21T13:55:00.865Z,20.74
2022-08-21T13:57:36.845Z,20.75
2022-08-21T14:00:31.546Z,20.75
2022-08-21T14:03:11.448Z,20.72
2022-08-21T14:05:47.773Z,20.71
2022-08-21T14:08:40.383Z,20.72
2022-08-21T14:11:36.296Z,20.76
2022-08-21T14:14:34.248Z,20.78
2022-08-21T14:17:39.919Z,20.77
2022-08-21T14:20:34.826Z,20.75
2022-08-21T14:23:27.673Z,20.76
2022-08-21T14:26:04.574Z,20.78
2022-08-21T14:28:41.468Z,20.76
2022-08-21T14:31:23.354Z,20.75
2022-08-21T14:33:56.634Z,20.74
2022-08-21T14:36:29.114Z,20.75
2022-08-21T14:38:58.561Z,20.75
2022-08-21T14:41:31.711Z,20.77
2022-08-21T14:44:09.647Z,20.78
2022-08-21T14:46:45.855Z,20.78
2022-08-21T14:49:28.952Z,20.77
2022-08-21T14:51:59.349Z,20.77
2022-08-21T14:54:32.447Z,20.76
2022-08-21T14:57:13.429Z,20.75
2022-08-21T14:59:42.641Z,20.73
2022-08-21T15:02:12.826Z,20.72
2022-08-21T15:04:43.698Z,20.72
2022-08-21T15:07:16.028Z,20.71
2022-08-21T15:09:45.317Z,20.69
2022-08-21T15:12:17.866Z,20.69
2022-08-21T15:14:47.514Z,20.69
2022-08-21T15:17:19.642Z,20.68
2022-08-21T15:19:49.126Z,20.66
2022-08-21T15:22:27.540Z,20.66
2022-08-21T15:25:10.977Z,20.64
2022-08-21T15:27:43.138Z,20.63
2022-08-21T15:30:13.260Z,20.62
2022-08-21T15:32:43.233Z,20.60
2022-08-21T15:35:21.179Z,20.58
2022-08-21T15:37:52.985Z,20.58
2022-08-21T15:40:24.192Z,20.56
2022-08-21T15:43:01.216Z,20.52
2022-08-21T15:45:31.865Z,20.51
2022-08-21T15:48:03.170Z,20.51
2022-08-21T15:50:33.378Z,20.50
2022-08-21T15:53:02.717Z,20.44
2022-08-21T15:55:45.739Z,20.43
2022-08-21T15:58:24.816Z,20.42
2022-08-21T16:00:54.599Z,20.43
2022-08-21T16:03:24.920Z,20.42
2022-08-21T16:05:56.849Z,20.41
2022-08-21T16:08:26.284Z,20.38
2022-08-21T16:11:04.337Z,20.36
2022-08-21T16:13:46.035Z,20.35
2022-08-21T16:16:25.261Z,20.31
2022-08-21T16:19:00.943Z,20.29
2022-08-21T16:21:44.644Z,20.29
2022-08-21T16:24:24.751Z,20.28
2022-08-21T16:27:08.107Z,20.27
2022-08-21T16:29:39.593Z,20.24
2022-08-21T16:32:30.593Z,20.18
2022-08-21T16:35:53.110Z,20.17
2022-08-21T16:39:01.116Z,20.16
2022-08-21T16:42:11.824Z,20.15
2022-08-21T16:45:33.386Z,20.14
2022-08-21T16:48:18.428Z,20.13
2022-08-21T16:50:54.882Z,20.12
2022-08-21T16:53:31.494Z,20.09
2022-08-21T16:56:33.784Z,20.05
2022-08-21T16:59:44.633Z,20.00
2022-08-21T17:03:11.315Z,19.97
2022-08-21T17:06:05.373Z,19.89
2022-08-21T17:08:54.593Z,19.80
2022-08-21T17:11:50.728Z,19.75
2022-08-21T17:14:30.961Z,19.70
2022-08-21T17:17:14.447Z,19.64
2022-08-21T17:19:59.736Z,19.61
2022-08-21T17:22:34.434Z,19.54
2022-08-21T17:25:14.268Z,19.51
2022-08-21T17:28:20.317Z,19.46
2022-08-21T17:31:10.368Z,19.39
2022-08-21T17:33:56.499Z,19.35
2022-08-21T17:36:40.665Z,19.31
2022-08-21T17:39:22.102Z,19.29
2022-08-21T17:42:10.646Z,19.23
2022-08-21T17:44:46.401Z,19.17
2022-08-21T17:47:38.809Z,19.13
2022-08-21T17:50:22.450Z,19.09
2022-08-21T17:52:53.841Z,19.07
2022-08-21T17:55:25.117Z,19.06
2022-08-21T17:57:59.168Z,19.05
2022-08-21T18:00:39.511Z,19.02
2022-08-21T18:03:22.860Z,18.99
2022-08-21T18:05:54.616Z,18.98
2022-08-21T18:08:24.813Z,18.96
2022-08-21T18:11:04.342Z,18.93
2022-08-21T18:13:43.103Z,18.86
2022-08-21T18:16:19.732Z,18.81
2022-08-21T18:19:01.816Z,18.80
2022-08-21T18:22:04.286Z,18.77
2022-08-21T18:24:37.299Z,18.75
2022-08-21T18:27:19.082Z,18.75
2022-08-21T18:29:59.326Z,18.73
2022-08-21T18:32:42.391Z,18.72
2022-08-21T18:35:17.825Z,18.71
2022-08-21T18:37:50.493Z,18.70
2022-08-21T18:40:25.197Z,18.73
2022-08-21T18:42:57.673Z,18.72
2022-08-21T18:45:38.550Z,18.71
2022-08-21T18:48:16.841Z,18.67
2022-08-21T18:50:52.487Z,18.63
2022-08-21T18:53:36.340Z,18.58
2022-08-21T18:56:42.423Z,18.54
2022-08-21T18:59:21.582Z,18.50
2022-08-21T19:02:02.230Z,18.47
2022-08-21T19:04:43.610Z,18.43
2022-08-21T19:07:15.090Z,18.41
2022-08-21T19:12:44.032Z,18.37
2022-08-21T19:15:19.167Z,18.34
2022-08-21T19:17:56.831Z,18.33
2022-08-21T19:20:38.066Z,18.31
2022-08-21T19:23:11.699Z,18.27
2022-08-21T19:25:51.846Z,18.26
2022-08-21T19:28:49.264Z,18.24
2022-08-21T19:31:27.453Z,18.20
2022-08-21T19:34:08.743Z,18.18
2022-08-21T19:36:42.357Z,18.16
2022-08-21T19:39:16.126Z,18.15
2022-08-21T19:41:51.741Z,18.16
2022-08-21T19:44:31.886Z,18.15
2022-08-21T19:47:05.543Z,18.11
2022-08-21T19:49:38.710Z,18.11
2022-08-21T19:52:19.775Z,18.12
2022-08-21T19:54:57.708Z,18.12
2022-08-21T19:57:32.071Z,18.13
2022-08-21T20:00:07.127Z,18.11
2022-08-21T20:02:40.974Z,18.12
2022-08-21T20:05:20.382Z,18.10
2022-08-21T20:07:52.154Z,18.09
2022-08-21T20:10:23.274Z,18.10
2022-08-21T20:12:55.066Z,18.11
2022-08-21T20:15:25.139Z,18.11
2022-08-21T20:17:54.750Z,18.11
2022-08-21T20:20:24.027Z,18.10
2022-08-21T20:22:56.546Z,18.10
2022-08-21T20:25:29.177Z,18.09
2022-08-21T20:27:58.691Z,18.11
2022-08-21T20:30:29.035Z,18.12
2022-08-21T20:32:59.224Z,18.13
2022-08-21T20:35:32.017Z,18.14
2022-08-21T20:38:06.078Z,18.15
2022-08-21T20:40:37.691Z,18.15
2022-08-21T20:43:08.592Z,18.15
2022-08-21T20:45:51.935Z,18.15
2022-08-21T20:48:32.399Z,18.16
2022-08-21T20:51:44.988Z,18.12
2022-08-21T20:55:08.872Z,18.12
2022-08-21T20:58:03.142Z,18.11
2022-08-21T21:00:41.900Z,18.11
2022-08-21T21:03:21.275Z,18.11
2022-08-21T21:06:33.751Z,18.13
2022-08-21T21:09:24.325Z,18.12
2022-08-21T21:11:59.146Z,18.09
2022-08-21T21:14:48.374Z,18.06
2022-08-21T21:18:14.163Z,18.03
2022-08-21T21:20:57.457Z,18.00
2022-08-21T21:24:07.441Z,18.02
2022-08-21T21:27:18.457Z,18.02
2022-08-21T21:29:57.153Z,18.02
2022-08-21T21:32:34.404Z,18.00
2022-08-21T21:35:32.550Z,18.00
2022-08-21T21:38:51.627Z,17.98
2022-08-21T21:41:37.805Z,17.96
2022-08-21T21:44:56.390Z,17.95
2022-08-21T21:47:52.331Z,17.92
2022-08-21T21:50:46.404Z,17.90
2022-08-21T21:54:04.712Z,17.88
2022-08-21T21:57:11.444Z,17.83
2022-08-21T22:00:12.182Z,17.79
2022-08-21T22:03:22.611Z,17.77
2022-08-21T22:06:08.536Z,17.76
2022-08-21T22:09:02.598Z,17.76
2022-08-21T22:11:58.723Z,17.73
2022-08-21T22:14:46.680Z,17.70
2022-08-21T22:17:41.084Z,17.68
2022-08-21T22:20:35.818Z,17.64
2022-08-21T22:23:16.021Z,17.63
2022-08-21T22:25:58.554Z,17.62
2022-08-21T22:28:40.458Z,17.61
2022-08-21T22:31:29.698Z,17.60
2022-08-21T22:34:18.450Z,17.57
2022-08-21T22:37:15.685Z,17.55
2022-08-21T22:40:02.221Z,17.55
2022-08-21T22:43:04.054Z,17.54
2022-08-21T22:46:13.478Z,17.50
2022-08-21T22:49:04.846Z,17.49
2022-08-21T22:51:49.902Z,17.49
2022-08-21T22:54:35.977Z,17.48
2022-08-21T22:57:35.124Z,17.46
2022-08-21T23:00:17.522Z,17.44
2022-08-21T23:02:53.399Z,17.43
2022-08-21T23:05:40.161Z,17.32
2022-08-21T23:08:40.540Z,17.25
2022-08-21T23:11:44.403Z,17.21
2022-08-21T23:14:20.184Z,17.19
2022-08-21T23:17:07.793Z,17.16
2022-08-21T23:20:13.250Z,17.12
2022-08-21T23:22:54.811Z,17.06
2022-08-21T23:25:39.651Z,17.00
2022-08-21T23:28:58.622Z,16.88
2022-08-21T23:31:58.569Z,16.84
2022-08-21T23:35:02.179Z,16.83
2022-08-21T23:38:17.951Z,16.81
2022-08-21T23:40:58.706Z,16.77
2022-08-21T23:44:12.927Z,16.75
2022-08-21T23:47:29.627Z,16.73
2022-08-21T23:50:32.743Z,16.68
2022-08-21T23:53:23.914Z,16.65
2022-08-21T23:56:51.436Z,16.64
2022-08-21T23:59:54.028Z,16.64
